createdAt,value
2022-11-17T01:45:00.368Z,11.3
2022-11-17T02:27:00.370Z,11.1
2022-11-17T02:45:00.365Z,11.1
2022-11-17T10:01:00.399Z,11.8
2022-11-17T11:48:00.405Z,12.5
2022-11-17T12:57:00.415Z,12.2
2022-11-17T20:10:00.459Z,11.7
2022-11-17T20:11:00.457Z,11.7
2022-11-17T20:12:00.463Z,11.7
2022-11-17T20:13:00.469Z,11.5
2022-11-17T20:14:00.460Z,11.6
2022-11-17T22:55:00.462Z,11.1
2022-11-17T22:56:00.474Z,11.1
2022-11-17T22:57:00.478Z,11.3
2022-11-17T22:58:00.470Z,11.2
2022-11-17T22:59:00.468Z,11.2
2022-11-17T23:00:00.473Z,11.2
2022-11-17T23:01:00.468Z,11.2
2022-11-17T23:02:00.472Z,11.2
2022-11-17T23:03:00.554Z,11.2
2022-11-17T23:04:00.477Z,11.2
2022-11-17T23:05:00.471Z,11.2
2022-11-17T23:07:00.533Z,11.3
2022-11-17T23:08:03.081Z,11.3
2022-11-17T23:09:00.462Z,11.3
2022-11-17T23:10:00.460Z,11.2
2022-11-17T23:13:00.466Z,11.2
2022-11-17T23:14:00.468Z,11.2
2022-11-17T23:15:00.470Z,11.2
2022-11-17T23:16:00.464Z,11
2022-11-17T23:18:00.464Z,11
2022-11-17T23:20:00.467Z,10.9
2022-11-17T23:21:00.500Z,11.1
2022-11-17T23:22:00.475Z,11
2022-11-17T23:23:00.473Z,11
2022-11-17T23:24:00.480Z,11
2022-11-17T23:26:00.509Z,11.1
2022-11-17T23:27:00.848Z,11.2
2022-11-17T23:28:00.473Z,11.2
2022-11-17T23:29:00.469Z,11.1
2022-11-17T23:31:00.482Z,11.2
2022-11-17T23:32:00.468Z,11.1
2022-11-17T23:33:00.477Z,11.1
2022-11-17T23:35:00.472Z,11.1
2022-11-17T23:36:00.489Z,11.2
2022-11-17T23:37:03.714Z,11.3
2022-11-17T23:40:00.478Z,11.2
2022-11-17T23:41:00.491Z,11.2
2022-11-17T23:43:00.473Z,11.1
2022-11-17T23:44:00.470Z,11
2022-11-17T23:45:00.469Z,11
2022-11-17T23:46:00.478Z,11.1
2022-11-17T23:49:00.471Z,11.2
2022-11-17T23:50:00.478Z,11.3
2022-11-17T23:51:00.475Z,11.2
2022-11-17T23:52:00.505Z,11.3
2022-11-17T23:54:00.471Z,11.2
2022-11-17T23:55:00.471Z,11.2
2022-11-17T23:56:00.478Z,11.2
2022-11-17T23:57:00.475Z,11.2
2022-11-17T23:58:00.486Z,11.3
